createdAt,value
2023-04-14T00:02:17.627Z,50.89
2023-04-14T00:04:54.647Z,50.88
2023-04-14T00:07:26.965Z,51.12
2023-04-14T00:09:59.310Z,50.93
2023-04-14T00:12:31.705Z,51.24
2023-04-14T00:15:04.425Z,51.25
2023-04-14T00:17:36.722Z,51.23
2023-04-14T00:20:11.079Z,51.30
2023-04-14T00:22:43.493Z,51.23
2023-04-14T00:25:15.797Z,51.49
2023-04-14T00:27:48.224Z,51.37
2023-04-14T00:30:20.656Z,51.45
2023-04-14T00:32:53.285Z,51.57
2023-04-14T00:35:26.047Z,51.60
2023-04-14T00:37:58.778Z,51.64
2023-04-14T00:40:32.234Z,51.72
2023-04-14T00:43:04.623Z,51.75
2023-04-14T00:45:43.065Z,51.77
2023-04-14T00:48:17.497Z,51.89
2023-04-14T00:50:50.825Z,51.84
2023-04-14T00:53:24.175Z,52.00
2023-04-14T00:55:56.869Z,51.99
2023-04-14T00:58:29.716Z,52.05
2023-04-14T01:01:02.798Z,52.06
2023-04-14T01:03:38.099Z,52.08
2023-04-14T01:06:11.161Z,52.20
2023-04-14T01:08:43.758Z,52.17
2023-04-14T01:11:25.387Z,52.06
2023-04-14T01:14:09.996Z,52.20
2023-04-14T01:16:45.626Z,52.17
2023-04-14T01:19:44.102Z,52.28
2023-04-14T01:22:20.056Z,52.41
2023-04-14T01:25:04.035Z,52.32
2023-04-14T01:27:43.061Z,52.46
2023-04-14T01:30:36.774Z,52.40
2023-04-14T01:33:13.965Z,52.36
2023-04-14T01:35:51.041Z,52.54
2023-04-14T01:38:28.563Z,52.45
2023-04-14T01:41:05.873Z,52.62
2023-04-14T01:43:45.561Z,52.60
2023-04-14T01:46:19.158Z,52.59
2023-04-14T01:48:52.656Z,52.43
2023-04-14T01:51:27.623Z,52.64
2023-04-14T01:54:01.241Z,52.66
2023-04-14T01:56:35.185Z,52.70
2023-04-14T01:59:09.975Z,52.66
2023-04-14T02:01:44.459Z,52.71
2023-04-14T02:04:18.841Z,52.77
2023-04-14T02:06:53.098Z,52.74
2023-04-14T02:09:27.234Z,52.67
2023-04-14T02:12:01.032Z,52.90
2023-04-14T02:14:35.382Z,52.93
2023-04-14T02:17:09.293Z,52.88
2023-04-14T02:19:43.964Z,52.98
2023-04-14T02:22:16.867Z,53.01
2023-04-14T02:24:49.623Z,52.99
2023-04-14T02:27:31.111Z,53.06
2023-04-14T02:30:07.286Z,53.18
2023-04-14T02:32:41.436Z,53.28
2023-04-14T02:35:18.085Z,53.27
2023-04-14T02:37:56.461Z,53.36
2023-04-14T02:40:31.988Z,53.28
2023-04-14T02:43:12.727Z,53.38
2023-04-14T02:45:49.164Z,53.51
2023-04-14T02:48:25.439Z,53.37
2023-04-14T02:50:59.139Z,53.56
2023-04-14T02:53:32.065Z,53.64
2023-04-14T02:56:04.943Z,53.69
2023-04-14T02:58:38.210Z,53.66
2023-04-14T03:01:11.304Z,53.68
2023-04-14T03:03:43.885Z,53.71
2023-04-14T03:06:17.592Z,53.55
2023-04-14T03:08:52.907Z,53.76
2023-04-14T03:11:26.858Z,53.86
2023-04-14T03:14:00.127Z,53.66
2023-04-14T03:16:33.547Z,53.84
2023-04-14T03:19:08.371Z,53.89
2023-04-14T03:21:41.029Z,53.94
2023-04-14T03:24:19.372Z,53.92
2023-04-14T03:26:56.159Z,54.01
2023-04-14T03:29:32.803Z,54.17
2023-04-14T03:32:08.916Z,54.13
2023-04-14T03:34:46.529Z,54.24
2023-04-14T03:37:22.090Z,54.25
2023-04-14T03:39:58.876Z,54.36
2023-04-14T03:42:32.708Z,54.41
2023-04-14T03:45:05.920Z,54.45
2023-04-14T03:47:39.004Z,54.46
2023-04-14T03:50:15.657Z,54.63
2023-04-14T03:52:50.727Z,54.67
2023-04-14T03:55:23.680Z,54.66
2023-04-14T03:57:58.487Z,54.70
2023-04-14T04:00:32.165Z,54.68
2023-04-14T04:03:06.146Z,54.82
2023-04-14T04:05:41.797Z,54.78
2023-04-14T04:08:15.870Z,54.97
2023-04-14T04:10:50.200Z,55.03
2023-04-14T04:13:25.153Z,54.89
2023-04-14T04:15:58.906Z,54.97
2023-04-14T04:18:38.297Z,55.01
2023-04-14T04:21:11.679Z,54.86
2023-04-14T04:23:47.742Z,54.93
2023-04-14T04:26:20.490Z,54.91
2023-04-14T04:28:53.844Z,54.90
2023-04-14T04:31:28.911Z,54.79
2023-04-14T04:34:03.272Z,54.97
2023-04-14T04:36:36.919Z,55.02
2023-04-14T04:39:09.348Z,54.95
2023-04-14T04:41:41.848Z,55.11
2023-04-14T04:44:14.323Z,55.06
2023-04-14T04:46:51.605Z,54.98
2023-04-14T04:49:24.536Z,54.84
2023-04-14T04:51:57.855Z,54.93
2023-04-14T04:54:30.542Z,54.96
2023-04-14T04:57:02.876Z,54.83
2023-04-14T04:59:37.324Z,54.87
2023-04-14T05:02:10.793Z,54.96
2023-04-14T05:04:43.626Z,54.84
2023-04-14T05:07:16.044Z,54.93
2023-04-14T05:09:48.381Z,54.82
2023-04-14T05:12:20.717Z,54.73
2023-04-14T05:14:53.159Z,54.80
2023-04-14T05:17:25.509Z,54.75
2023-04-14T05:19:57.992Z,54.61
2023-04-14T05:22:30.500Z,54.61
2023-04-14T05:25:03.000Z,54.60
2023-04-14T05:27:35.576Z,54.52
2023-04-14T05:30:10.116Z,54.55
2023-04-14T05:32:42.637Z,54.47
2023-04-14T05:35:15.973Z,54.38
2023-04-14T05:37:48.322Z,54.26
2023-04-14T05:40:22.364Z,54.01
2023-04-14T05:42:56.527Z,53.72
2023-04-14T05:45:29.645Z,53.65
2023-04-14T05:48:02.264Z,53.71
2023-04-14T05:50:35.033Z,53.47
2023-04-14T05:53:07.794Z,53.55
2023-04-14T05:55:40.541Z,53.38
2023-04-14T05:58:13.030Z,53.43
2023-04-14T06:00:45.483Z,53.44
2023-04-14T06:03:18.153Z,53.25
2023-04-14T06:05:53.200Z,53.19
2023-04-14T06:08:25.746Z,53.01
2023-04-14T06:10:58.081Z,52.93
2023-04-14T06:13:32.478Z,52.55
2023-04-14T06:16:07.304Z,52.49
2023-04-14T06:18:39.801Z,52.33
2023-04-14T06:21:16.705Z,52.16
2023-04-14T06:23:50.071Z,52.07
2023-04-14T06:26:22.487Z,52.16
2023-04-14T06:28:54.931Z,52.05
2023-04-14T06:31:27.312Z,51.83
2023-04-14T06:33:59.763Z,51.62
2023-04-14T06:36:32.102Z,51.34
2023-04-14T06:39:05.036Z,51.04
2023-04-14T06:41:37.443Z,50.93
2023-04-14T06:44:09.815Z,50.52
2023-04-14T06:46:42.492Z,50.53
2023-04-14T06:49:17.003Z,50.36
2023-04-14T06:51:52.354Z,50.35
2023-04-14T06:54:24.720Z,50.21
2023-04-14T06:56:58.071Z,50.08
2023-04-14T06:59:31.509Z,49.97
2023-04-14T07:02:03.907Z,49.74
2023-04-14T07:04:38.853Z,49.57
2023-04-14T07:07:11.223Z,49.24
2023-04-14T07:09:44.908Z,49.14
2023-04-14T07:12:18.048Z,49.05
2023-04-14T07:14:52.593Z,48.85
2023-04-14T07:17:25.011Z,48.64
2023-04-14T07:19:58.374Z,48.26
2023-04-14T07:22:30.682Z,47.98
2023-04-14T07:25:03.041Z,48.06
2023-04-14T07:27:35.565Z,48.02
2023-04-14T07:30:09.726Z,47.88
2023-04-14T07:32:42.475Z,47.63
2023-04-14T07:35:15.206Z,47.47
2023-04-14T07:37:47.740Z,47.06
2023-04-14T07:40:20.363Z,47.12
2023-04-14T07:42:52.673Z,46.61
2023-04-14T07:45:25.023Z,46.51
2023-04-14T07:47:57.888Z,46.36
2023-04-14T07:50:30.585Z,46.05
2023-04-14T07:53:05.445Z,46.09
2023-04-14T07:55:37.832Z,46.21
2023-04-14T07:58:15.176Z,45.85
2023-04-14T08:00:47.997Z,45.59
2023-04-14T08:03:20.465Z,45.71
2023-04-14T08:05:53.207Z,45.60
2023-04-14T08:08:26.153Z,45.32
2023-04-14T08:10:58.542Z,45.20
2023-04-14T08:13:31.003Z,45.00
2023-04-14T08:16:03.502Z,45.03
2023-04-14T08:18:36.628Z,44.33
2023-04-14T08:21:09.719Z,44.62
2023-04-14T08:23:42.088Z,44.45
2023-04-14T08:26:14.657Z,43.89
2023-04-14T08:28:47.758Z,43.94
2023-04-14T08:31:20.194Z,43.93
2023-04-14T08:33:53.215Z,44.12
2023-04-14T08:36:27.362Z,44.10
2023-04-14T08:39:01.814Z,44.07
2023-04-14T08:41:38.685Z,43.84
2023-04-14T08:44:11.379Z,44.09
2023-04-14T08:46:46.409Z,44.23
2023-04-14T08:49:26.794Z,44.22
2023-04-14T08:52:03.920Z,44.11
2023-04-14T08:54:36.770Z,43.97
2023-04-14T08:57:10.554Z,43.92
2023-04-14T08:59:45.159Z,44.11
2023-04-14T09:02:19.689Z,43.94
2023-04-14T09:04:52.891Z,43.74
2023-04-14T09:07:26.573Z,43.41
2023-04-14T09:10:00.666Z,43.16
2023-04-14T09:12:33.829Z,43.08
2023-04-14T09:15:07.996Z,42.74
2023-04-14T09:17:40.631Z,42.66
2023-04-14T09:20:38.171Z,42.52
2023-04-14T09:23:08.752Z,42.52
2023-04-14T09:25:43.222Z,42.34
2023-04-14T09:28:15.827Z,41.93
2023-04-14T09:30:48.356Z,41.68
2023-04-14T09:33:25.099Z,41.95
2023-04-14T09:35:57.822Z,41.90
2023-04-14T09:38:37.256Z,41.98
2023-04-14T09:41:09.875Z,42.18
2023-04-14T09:43:43.625Z,42.23
2023-04-14T09:46:16.839Z,42.23
2023-04-14T09:48:57.004Z,42.00
2023-04-14T09:51:33.149Z,41.75
2023-04-14T09:54:06.527Z,41.63
2023-04-14T09:56:39.271Z,41.65
2023-04-14T09:59:13.026Z,41.54
2023-04-14T10:01:48.505Z,41.41
2023-04-14T10:04:26.784Z,41.53
2023-04-14T10:07:02.719Z,41.57
2023-04-14T10:09:39.008Z,41.40
2023-04-14T10:12:13.472Z,41.34
2023-04-14T10:14:46.504Z,41.40
2023-04-14T10:17:19.932Z,41.64
2023-04-14T10:19:52.731Z,41.64
2023-04-14T10:22:27.831Z,41.56
2023-04-14T10:25:01.944Z,41.63
2023-04-14T10:27:35.699Z,41.65
2023-04-14T10:30:10.726Z,41.48
2023-04-14T10:32:46.089Z,41.26
2023-04-14T10:35:19.873Z,41.04
2023-04-14T10:37:55.251Z,40.99
2023-04-14T10:40:27.739Z,40.96
2023-04-14T10:43:00.101Z,40.94
2023-04-14T10:45:32.542Z,40.92
2023-04-14T10:48:06.079Z,41.03
2023-04-14T10:50:49.548Z,40.93
2023-04-14T10:53:22.202Z,41.19
2023-04-14T10:55:57.090Z,40.93
2023-04-14T10:58:30.655Z,40.89
2023-04-14T11:01:21.941Z,41.28
2023-04-14T11:03:56.348Z,41.19
2023-04-14T11:06:55.029Z,41.09
2023-04-14T11:09:37.309Z,41.04
2023-04-14T11:12:26.118Z,41.01
2023-04-14T11:15:05.260Z,41.06
2023-04-14T11:17:40.971Z,40.89
2023-04-14T11:20:20.231Z,40.89
2023-04-14T11:22:54.321Z,41.05
2023-04-14T11:25:27.059Z,41.17
2023-04-14T11:28:02.647Z,40.91
2023-04-14T11:30:35.027Z,41.03
2023-04-14T11:33:07.756Z,41.02
2023-04-14T11:35:43.431Z,41.05
2023-04-14T11:38:16.343Z,41.09
2023-04-14T11:40:52.987Z,41.16
2023-04-14T11:43:26.239Z,41.51
2023-04-14T11:45:59.187Z,41.53
2023-04-14T11:48:32.400Z,41.51
2023-04-14T11:51:04.793Z,41.51
2023-04-14T11:53:40.734Z,41.41
2023-04-14T11:56:15.107Z,41.50
2023-04-14T11:58:47.734Z,41.40
2023-04-14T12:01:25.355Z,41.49
2023-04-14T12:03:58.761Z,41.59
2023-04-14T12:06:36.515Z,41.75
2023-04-14T12:09:11.492Z,42.06
2023-04-14T12:11:43.949Z,42.15
2023-04-14T12:14:16.418Z,42.19
2023-04-14T12:16:49.126Z,42.48
2023-04-14T12:19:22.285Z,42.50
2023-04-14T12:21:55.786Z,42.81
2023-04-14T12:24:36.486Z,42.97
2023-04-14T12:27:10.139Z,43.20
2023-04-14T12:29:45.314Z,43.05
2023-04-14T12:32:18.885Z,43.24
2023-04-14T12:34:58.806Z,43.40
2023-04-14T12:37:31.764Z,43.42
2023-04-14T12:40:06.990Z,43.56
2023-04-14T12:42:50.112Z,43.61
2023-04-14T12:45:22.563Z,43.67
2023-04-14T12:48:00.743Z,43.68
2023-04-14T12:50:33.657Z,43.87
2023-04-14T12:53:23.725Z,43.96
2023-04-14T12:56:12.321Z,43.85
2023-04-14T12:58:47.112Z,43.91
2023-04-14T13:01:21.232Z,44.03
2023-04-14T13:03:56.146Z,43.96
2023-04-14T13:06:28.739Z,44.13
2023-04-14T13:09:01.844Z,44.14
2023-04-14T13:11:34.554Z,44.29
2023-04-14T13:14:06.889Z,44.25
2023-04-14T13:16:39.361Z,44.42
2023-04-14T13:19:12.011Z,44.40
2023-04-14T13:21:44.351Z,44.51
2023-04-14T13:24:16.843Z,44.55
2023-04-14T13:26:49.356Z,44.64
2023-04-14T13:29:22.010Z,44.71
2023-04-14T13:31:54.412Z,44.87
2023-04-14T13:34:27.742Z,44.89
2023-04-14T13:37:00.032Z,44.98
2023-04-14T13:39:32.447Z,44.99
2023-04-14T13:42:04.926Z,44.96
2023-04-14T13:44:37.796Z,45.06
2023-04-14T13:47:10.441Z,45.05
2023-04-14T13:49:42.897Z,45.21
2023-04-14T13:52:15.787Z,45.18
2023-04-14T13:54:48.162Z,45.37
2023-04-14T13:57:22.070Z,45.35
2023-04-14T13:59:54.450Z,45.44
2023-04-14T14:02:27.006Z,45.40
2023-04-14T14:04:59.812Z,45.59
2023-04-14T14:07:32.168Z,45.57
2023-04-14T14:10:05.218Z,45.61
2023-04-14T14:12:38.356Z,45.69
2023-04-14T14:15:12.936Z,45.69
2023-04-14T14:17:45.311Z,45.80
2023-04-14T14:20:17.730Z,45.79
2023-04-14T14:22:50.114Z,45.84
2023-04-14T14:25:24.016Z,45.84
2023-04-14T14:27:56.821Z,45.88
2023-04-14T14:30:29.252Z,45.66
2023-04-14T14:33:01.673Z,45.82
2023-04-14T14:35:34.087Z,45.85
2023-04-14T14:38:06.412Z,46.02
2023-04-14T14:40:38.758Z,46.00
2023-04-14T14:43:11.156Z,45.81
2023-04-14T14:45:43.674Z,45.51
2023-04-14T14:48:16.728Z,45.31
2023-04-14T14:50:49.237Z,45.19
2023-04-14T14:53:21.591Z,44.96
2023-04-14T14:55:53.984Z,44.83
2023-04-14T14:58:26.272Z,44.83
2023-04-14T15:00:58.773Z,44.75
2023-04-14T15:03:31.313Z,44.75
2023-04-14T15:06:04.042Z,44.61
2023-04-14T15:08:37.017Z,44.72
2023-04-14T15:11:09.848Z,44.72
2023-04-14T15:13:43.128Z,44.69
2023-04-14T15:16:16.109Z,44.62
2023-04-14T15:18:48.556Z,44.70
2023-04-14T15:21:21.106Z,44.51
2023-04-14T15:23:53.418Z,44.60
2023-04-14T15:26:26.245Z,44.63
2023-04-14T15:28:58.640Z,44.58
2023-04-14T15:31:31.369Z,44.71
2023-04-14T15:34:04.031Z,44.68
2023-04-14T15:36:37.357Z,44.57
2023-04-14T15:39:09.745Z,44.61
2023-04-14T15:41:42.302Z,44.70
2023-04-14T15:44:14.595Z,44.62
2023-04-14T15:46:47.023Z,44.65
2023-04-14T15:49:19.431Z,44.56
2023-04-14T15:51:52.937Z,44.70
2023-04-14T15:54:25.700Z,44.72
2023-04-14T15:56:57.907Z,44.76
2023-04-14T15:59:31.238Z,44.76
2023-04-14T16:02:03.596Z,44.73
2023-04-14T16:04:36.507Z,44.92
2023-04-14T16:07:09.244Z,44.85
2023-04-14T16:09:41.525Z,44.93
2023-04-14T16:12:13.994Z,45.05
2023-04-14T16:14:46.439Z,45.18
2023-04-14T16:17:18.817Z,45.19
2023-04-14T16:19:52.129Z,45.10
2023-04-14T16:22:24.571Z,45.32
2023-04-14T16:24:57.042Z,45.51
2023-04-14T16:27:29.466Z,45.44
2023-04-14T16:30:01.992Z,45.44
2023-04-14T16:32:34.413Z,45.63
2023-04-14T16:35:07.838Z,45.56
2023-04-14T16:37:40.251Z,45.54
2023-04-14T16:40:13.717Z,45.55
2023-04-14T16:42:46.791Z,45.24
2023-04-14T16:45:19.784Z,45.40
2023-04-14T16:47:53.263Z,45.48
2023-04-14T16:50:25.837Z,45.30
2023-04-14T16:52:58.073Z,45.15
2023-04-14T16:55:30.767Z,44.69
2023-04-14T16:58:03.672Z,44.36
2023-04-14T17:00:36.133Z,44.48
2023-04-14T17:03:08.720Z,44.50
2023-04-14T17:05:41.152Z,44.44
2023-04-14T17:08:13.772Z,44.47
2023-04-14T17:10:46.677Z,44.53
2023-04-14T17:13:19.355Z,44.50
2023-04-14T17:16:02.361Z,44.52
2023-04-14T17:18:38.539Z,44.46
2023-04-14T17:21:10.905Z,44.64
2023-04-14T17:23:43.727Z,44.67
2023-04-14T17:26:18.229Z,44.60
2023-04-14T17:28:50.591Z,44.65
2023-04-14T17:31:22.890Z,44.75
2023-04-14T17:33:56.318Z,44.82
2023-04-14T17:36:28.847Z,44.98
2023-04-14T17:39:01.259Z,45.27
2023-04-14T17:41:35.886Z,45.64
2023-04-14T17:44:08.222Z,45.95
2023-04-14T17:46:40.619Z,46.24
2023-04-14T17:49:12.914Z,46.39
2023-04-14T17:51:45.639Z,46.66
2023-04-14T17:54:18.021Z,46.79
2023-04-14T17:56:52.770Z,47.04
2023-04-14T17:59:26.087Z,47.06
2023-04-14T18:01:58.780Z,47.32
2023-04-14T18:04:31.230Z,47.32
2023-04-14T18:07:04.725Z,47.49
2023-04-14T18:09:37.027Z,47.66
2023-04-14T18:12:09.393Z,47.89
2023-04-14T18:14:41.710Z,48.03
2023-04-14T18:17:14.124Z,48.15
2023-04-14T18:19:47.125Z,48.33
2023-04-14T18:22:19.584Z,48.48
2023-04-14T18:24:53.558Z,48.64
2023-04-14T18:30:01.890Z,48.94
2023-04-14T18:32:34.393Z,48.98
2023-04-14T18:35:07.570Z,49.32
2023-04-14T18:37:40.056Z,49.60
2023-04-14T18:40:13.773Z,49.41
2023-04-14T18:42:46.262Z,49.67
2023-04-14T18:45:18.970Z,49.75
2023-04-14T18:47:51.338Z,49.87
2023-04-14T18:50:23.823Z,49.85
2023-04-14T18:52:58.624Z,50.21
2023-04-14T18:55:41.333Z,50.34
2023-04-14T18:58:18.748Z,50.50
2023-04-14T19:00:52.084Z,50.69
2023-04-14T19:03:24.548Z,50.67
2023-04-14T19:05:57.109Z,50.80
2023-04-14T19:08:29.389Z,51.01
2023-04-14T19:11:02.382Z,51.07
2023-04-14T19:13:36.222Z,51.29
2023-04-14T19:16:11.742Z,51.44
2023-04-14T19:18:42.563Z,51.50
2023-04-14T19:21:15.084Z,51.86
2023-04-14T19:23:47.630Z,51.66
2023-04-14T19:26:20.002Z,51.95
2023-04-14T19:28:53.506Z,52.05
2023-04-14T19:31:28.412Z,52.22
2023-04-14T19:34:00.799Z,52.31
2023-04-14T19:36:34.533Z,52.47
2023-04-14T19:39:07.013Z,52.68
2023-04-14T19:41:39.421Z,52.71
2023-04-14T19:44:12.153Z,52.58
2023-04-14T19:46:44.526Z,52.71
2023-04-14T19:49:17.184Z,52.91
2023-04-14T19:51:51.010Z,53.07
2023-04-14T19:54:23.422Z,53.10
2023-04-14T19:56:55.877Z,53.07
2023-04-14T19:59:29.561Z,53.31
2023-04-14T20:02:02.166Z,53.49
2023-04-14T20:04:34.915Z,53.44
2023-04-14T20:07:07.262Z,53.23
2023-04-14T20:09:44.896Z,53.40
2023-04-14T20:12:17.394Z,53.24
2023-04-14T20:14:49.813Z,53.32
2023-04-14T20:17:23.546Z,53.56
2023-04-14T20:19:56.049Z,53.44
2023-04-14T20:22:28.729Z,53.65
2023-04-14T20:25:01.384Z,53.86
2023-04-14T20:27:33.665Z,53.78
2023-04-14T20:30:07.252Z,53.63
2023-04-14T20:32:39.753Z,53.51
2023-04-14T20:35:12.505Z,53.45
2023-04-14T20:37:45.028Z,53.51
2023-04-14T20:40:18.385Z,53.45
2023-04-14T20:42:50.750Z,53.44
2023-04-14T20:45:23.392Z,53.69
2023-04-14T20:47:55.692Z,53.78
2023-04-14T20:50:28.537Z,53.89
2023-04-14T20:53:01.050Z,53.98
2023-04-14T20:55:33.601Z,54.05
2023-04-14T20:58:05.841Z,53.96
2023-04-14T21:00:38.282Z,54.19
2023-04-14T21:03:11.359Z,54.26
2023-04-14T21:05:43.785Z,54.51
2023-04-14T21:08:16.044Z,54.59
2023-04-14T21:11:14.754Z,54.67
2023-04-14T21:15:30.528Z,54.91
2023-04-14T21:16:33.823Z,54.94
2023-04-14T21:19:06.475Z,54.92
2023-04-14T21:21:39.143Z,54.90
2023-04-14T21:24:11.424Z,55.06
2023-04-14T21:26:43.713Z,55.16
2023-04-14T21:29:16.010Z,55.13
2023-04-14T21:31:48.618Z,55.31
2023-04-14T21:34:20.905Z,55.54
2023-04-14T21:36:53.268Z,55.56
2023-04-14T21:39:28.519Z,55.68
2023-04-14T21:42:01.593Z,55.65
2023-04-14T21:44:33.969Z,55.64
2023-04-14T21:47:06.455Z,55.80
2023-04-14T21:49:38.906Z,55.83
2023-04-14T21:52:11.317Z,55.96
2023-04-14T21:54:44.494Z,56.04
2023-04-14T21:57:16.663Z,55.83
2023-04-14T21:59:50.199Z,55.63
2023-04-14T22:02:23.569Z,55.70
2023-04-14T22:04:56.161Z,55.77
2023-04-14T22:07:29.712Z,55.63
2023-04-14T22:10:02.393Z,55.72
2023-04-14T22:12:36.143Z,55.81
2023-04-14T22:15:10.598Z,55.85
2023-04-14T22:17:44.143Z,55.74
2023-04-14T22:20:16.659Z,55.81
2023-04-14T22:22:48.924Z,55.88
2023-04-14T22:25:21.388Z,55.72
2023-04-14T22:27:53.809Z,55.76
2023-04-14T22:30:26.228Z,55.90
2023-04-14T22:32:58.752Z,55.78
2023-04-14T22:35:31.649Z,55.67
2023-04-14T22:38:04.065Z,55.84
2023-04-14T22:40:36.406Z,55.70
2023-04-14T22:43:10.912Z,55.85
2023-04-14T22:45:43.660Z,55.85
2023-04-14T22:48:16.009Z,55.81
2023-04-14T22:50:48.453Z,55.61
2023-04-14T22:53:21.051Z,55.63
2023-04-14T22:55:53.331Z,55.63
2023-04-14T22:58:26.013Z,55.74
2023-04-14T23:00:59.434Z,55.66
2023-04-14T23:03:32.840Z,55.69
2023-04-14T23:06:06.152Z,55.62
2023-04-14T23:08:38.973Z,55.66
2023-04-14T23:11:11.328Z,55.65
2023-04-14T23:13:43.650Z,55.49
2023-04-14T23:16:16.976Z,55.35
2023-04-14T23:18:52.080Z,55.33
2023-04-14T23:21:25.114Z,55.41
2023-04-14T23:23:57.654Z,55.49
2023-04-14T23:26:31.181Z,55.40
2023-04-14T23:29:03.654Z,55.39
2023-04-14T23:31:36.564Z,55.44
2023-04-14T23:34:11.040Z,55.15
2023-04-14T23:36:43.523Z,55.14
2023-04-14T23:39:15.788Z,55.20
2023-04-14T23:41:48.858Z,55.12
2023-04-14T23:44:21.273Z,55.28
2023-04-14T23:46:53.824Z,55.10
2023-04-14T23:49:35.116Z,55.25
2023-04-14T23:52:08.579Z,55.39
2023-04-14T23:54:40.987Z,55.56
2023-04-14T23:57:13.772Z,55.67
2023-04-14T23:59:46.103Z,55.81
